Time;durP1;ratioP1;P1;durP2;ratioP2;P2;SDS_P1;SDS_P2;PMS_P1;PMS_P2;Temp;Humidity;BMP_temperature;BMP_pressure;BME280_temperature;BME280_humidity;BME280_pressure;Samples;Min_cycle;Max_cycle;Signal;HPM_P1;HPM_P2
2022/04/23 00:02:18;;;;;;;6.60;2.40;;;;;;;10.93;79.74;92213.94;5011141;28;20085;-83
2022/04/23 00:04:45;;;;;;;4.53;2.42;;;;;;;11.07;79.86;92237.50;5010872;28;20057;-83
2022/04/23 00:07:12;;;;;;;4.82;1.98;;;;;;;11.11;79.52;92234.47;5011220;28;20052;-83
2022/04/23 00:09:39;;;;;;;7.00;2.50;;;;;;;11.01;79.79;92227.41;5011247;28;20080;-83
2022/04/23 00:12:06;;;;;;;6.22;2.33;;;;;;;10.99;79.83;92232.78;5010007;28;20045;-83
2022/04/23 00:14:33;;;;;;;6.57;2.40;;;;;;;10.89;80.43;92223.16;5010618;28;20056;-83
2022/04/23 00:17:02;;;;;;;4.32;2.20;;;;;;;10.88;81.64;92239.56;5010257;28;20069;-83
2022/04/23 00:19:29;;;;;;;6.18;2.88;;;;;;;10.82;82.02;92232.78;5010170;28;20466;-84
2022/04/23 00:21:56;;;;;;;8.48;2.80;;;;;;;10.64;82.80;92228.69;5009684;28;20042;-83
2022/04/23 00:24:22;;;;;;;9.27;2.72;;;;;;;10.50;83.48;92215.38;5010435;28;20042;-83
2022/04/23 00:26:49;;;;;;;6.50;2.90;;;;;;;10.66;83.78;92240.25;5010130;28;20516;-84
2022/04/23 00:29:17;;;;;;;7.38;2.60;;;;;;;10.61;83.74;92237.66;5010050;28;20485;-83
2022/04/23 00:31:44;;;;;;;6.28;2.60;;;;;;;10.60;83.67;92230.16;5010246;28;20072;-84
2022/04/23 00:34:12;;;;;;;6.32;2.67;;;;;;;10.57;83.97;92233.97;5010325;28;20119;-83
2022/04/23 00:36:39;;;;;;;6.65;2.75;;;;;;;10.52;83.69;92224.38;5010388;28;20042;-83
2022/04/23 00:39:06;;;;;;;8.65;2.42;;;;;;;10.31;84.39;92212.25;5009865;28;20096;-83
2022/04/23 00:41:46;;;;;;;5.15;2.42;;;;;;;10.33;84.58;92221.25;5010457;28;20042;-83
2022/04/23 00:44:13;;;;;;;6.40;2.83;;;;;;;10.32;85.04;92218.94;5010365;28;20058;-83
2022/04/23 00:46:40;;;;;;;7.63;2.58;;;;;;;10.37;85.27;92237.75;5009957;28;20042;-83
2022/04/23 00:49:07;;;;;;;6.47;2.38;;;;;;;10.33;85.28;92239.22;5009176;28;20053;-83
2022/04/23 00:51:37;;;;;;;6.93;2.92;;;;;;;10.34;85.40;92248.50;5009828;28;20077;-83
2022/04/23 00:54:07;;;;;;;4.60;2.40;;;;;;;10.34;85.35;92238.22;5009803;28;20046;-84
2022/04/23 00:56:35;;;;;;;4.63;2.45;;;;;;;10.35;84.88;92244.91;5010035;28;20133;-84
2022/04/23 00:59:05;;;;;;;3.63;2.28;;;;;;;10.27;85.17;92235.78;5006474;28;20132;-83
2022/04/23 01:01:40;;;;;;;5.97;2.72;;;;;;;10.31;84.94;92241.22;5009310;28;20374;-83
2022/04/23 01:04:07;;;;;;;3.97;2.22;;;;;;;10.36;85.37;92250.78;5007337;28;20048;-83
2022/04/23 01:06:38;;;;;;;3.90;2.10;;;;;;;9.68;85.19;92146.28;5009100;28;20087;-83
2022/04/23 01:09:06;;;;;;;5.80;2.45;;;;;;;10.26;84.86;92228.31;5009177;28;20077;-83
2022/04/23 01:11:34;;;;;;;3.28;2.00;;;;;;;10.19;85.28;92209.72;5008754;28;20081;-82
2022/04/23 01:14:01;;;;;;;6.75;2.53;;;;;;;10.29;85.50;92223.50;5008846;28;20038;-82
2022/04/23 01:16:30;;;;;;;5.82;2.28;;;;;;;10.24;85.62;92223.41;5006078;28;20034;-82
2022/04/23 01:18:57;;;;;;;6.85;2.65;;;;;;;10.00;86.38;92186.84;5009329;28;20446;-81
2022/04/23 01:21:26;;;;;;;7.05;3.15;;;;;;;10.19;86.86;92225.91;5008905;28;20560;-82
2022/04/23 01:23:53;;;;;;;8.30;3.00;;;;;;;10.12;87.19;92223.50;5009160;28;20054;-83
2022/04/23 01:26:29;;;;;;;4.57;2.63;;;;;;;10.14;86.72;92218.13;5006523;28;20042;-83
2022/04/23 01:28:57;;;;;;;7.80;4.18;;;;;;;10.24;87.00;92235.47;5008799;28;20038;-84
2022/04/23 01:31:24;;;;;;;10.13;4.25;;;;;;;10.03;87.39;92214.59;5009428;28;20044;-83
2022/04/23 01:33:51;;;;;;;6.60;3.17;;;;;;;10.19;88.37;92236.19;5012289;28;20041;-84
2022/04/23 01:36:18;;;;;;;7.18;3.00;;;;;;;10.16;88.25;92228.94;5010743;28;20046;-83
2022/04/23 01:38:47;;;;;;;7.45;3.28;;;;;;;10.09;88.84;92241.91;5013539;28;20081;-85
2022/04/23 01:41:14;;;;;;;6.90;3.60;;;;;;;10.09;88.74;92229.06;5013007;28;20465;-83
2022/04/23 01:43:41;;;;;;;9.50;3.65;;;;;;;10.14;88.08;92228.41;5012778;28;20532;-82
2022/04/23 01:46:08;;;;;;;4.00;2.17;;;;;;;10.10;87.83;92225.50;5012827;28;20389;-80
2022/04/23 01:48:35;;;;;;;6.25;3.15;;;;;;;10.13;88.17;92225.03;5012606;28;20501;-81
2022/04/23 01:51:02;;;;;;;6.68;2.75;;;;;;;10.10;88.86;92222.16;5012536;28;20041;-80
2022/04/23 01:53:29;;;;;;;7.53;3.28;;;;;;;10.17;89.04;92235.63;5012343;28;20073;-81
2022/04/23 01:55:57;;;;;;;5.13;2.97;;;;;;;10.03;89.18;92209.47;5012382;28;20042;-81
2022/04/23 01:58:24;;;;;;;5.28;2.53;;;;;;;10.14;88.87;92220.69;5012793;28;20053;-82
2022/04/23 02:00:52;;;;;;;6.13;2.58;;;;;;;10.13;89.29;92222.47;5012918;28;20049;-81
2022/04/23 02:03:19;;;;;;;7.25;3.65;;;;;;;10.05;90.15;92210.03;5010068;28;20042;-81
2022/04/23 02:05:46;;;;;;;9.68;4.25;;;;;;;9.89;90.96;92209.75;5012493;28;20615;-81
2022/04/23 02:08:16;;;;;;;9.23;3.80;;;;;;;9.95;92.09;92223.44;5012558;28;20038;-82
2022/04/23 02:10:43;;;;;;;6.18;3.78;;;;;;;9.93;93.84;92234.94;5010135;28;20053;-82
2022/04/23 02:13:12;;;;;;;8.13;3.85;;;;;;;9.97;93.21;92236.84;5012641;28;20096;-82
2022/04/23 02:15:40;;;;;;;7.43;3.83;;;;;;;9.97;92.63;92228.34;5009795;28;20100;-82
2022/04/23 02:18:08;;;;;;;10.77;5.60;;;;;;;10.00;91.85;92228.66;5009272;28;20042;-82
2022/04/23 02:20:35;;;;;;;10.38;4.75;;;;;;;9.97;91.88;92221.44;5012337;28;20132;-81
2022/04/23 02:23:01;;;;;;;8.10;3.80;;;;;;;9.96;92.68;92212.16;5011926;28;20038;-81
2022/04/23 02:25:28;;;;;;;8.40;4.53;;;;;;;10.05;92.38;92235.69;5011911;28;20042;-80
2022/04/23 02:27:55;;;;;;;7.32;3.97;;;;;;;10.06;91.82;92231.31;5011859;28;20049;-81
2022/04/23 02:30:24;;;;;;;7.25;3.38;;;;;;;9.99;91.83;92216.84;5011827;28;20042;-81
2022/04/23 02:32:50;;;;;;;9.38;4.35;;;;;;;9.98;91.91;92214.50;5012009;28;20409;-81
2022/04/23 02:35:19;;;;;;;6.88;3.55;;;;;;;10.05;91.45;92222.06;5011765;28;20042;-81
2022/04/23 02:37:48;;;;;;;6.72;3.80;;;;;;;10.06;92.07;92224.41;5011582;28;20053;-81
2022/04/23 02:40:16;;;;;;;6.85;4.13;;;;;;;9.81;91.75;92179.34;5011976;28;20042;-81
2022/04/23 02:42:43;;;;;;;10.90;4.05;;;;;;;9.91;91.77;92201.84;5011750;28;20046;-82
2022/04/23 02:45:11;;;;;;;10.75;4.60;;;;;;;10.09;92.13;92231.63;5011389;28;20048;-82
2022/04/23 02:47:47;;;;;;;10.18;4.65;;;;;;;10.06;91.33;92215.94;5011873;28;20475;-82
2022/04/23 02:50:15;;;;;;;;;;;;;;;10.13;91.63;92224.25;5012241;28;20505;-83
2022/04/23 02:52:43;;;;;;;9.25;3.63;;;;;;;10.10;91.60;92222.91;5011758;28;19917;-83
2022/04/23 02:55:11;;;;;;;7.05;2.97;;;;;;;10.07;91.30;92213.13;5011995;28;20458;-83
2022/04/23 02:57:38;;;;;;;6.72;3.78;;;;;;;10.16;91.60;92216.09;5012074;28;20042;-83
2022/04/23 03:00:07;;;;;;;6.70;3.90;;;;;;;10.21;91.39;92223.09;5012404;28;20050;-82
2022/04/23 03:02:36;;;;;;;9.35;4.15;;;;;;;10.24;90.98;92212.38;5012096;28;20061;-82
2022/04/23 03:05:05;;;;;;;8.70;3.78;;;;;;;10.23;90.66;92203.13;5012151;28;20049;-83
2022/04/23 03:07:33;;;;;;;6.95;3.05;;;;;;;10.29;90.63;92213.22;5011559;28;20050;-83
2022/04/23 03:10:00;;;;;;;8.15;3.45;;;;;;;10.11;90.39;92187.78;5011965;28;20612;-83
2022/04/23 03:12:27;;;;;;;8.05;3.63;;;;;;;10.10;90.82;92194.69;5011243;28;20477;-83
2022/04/23 03:14:53;;;;;;;8.85;4.03;;;;;;;10.22;91.04;92206.69;5011542;28;20490;-83
2022/04/23 03:17:20;;;;;;;8.52;3.60;;;;;;;10.25;91.39;92213.94;5011283;28;20050;-83
2022/04/23 03:19:47;;;;;;;10.18;4.13;;;;;;;10.20;91.63;92201.00;5011261;28;20038;-84
2022/04/23 03:22:17;;;;;;;8.00;4.38;;;;;;;10.27;90.92;92217.81;5011573;28;20417;-83
2022/04/23 03:24:44;;;;;;;7.43;4.18;;;;;;;10.19;91.22;92213.09;5011293;28;20046;-83
2022/04/23 03:27:11;;;;;;;9.35;5.13;;;;;;;10.12;91.60;92192.69;5011290;28;20050;-83
2022/04/23 03:29:38;;;;;;;8.20;4.32;;;;;;;10.28;90.76;92216.03;5011129;28;20038;-83
2022/04/23 03:32:06;;;;;;;8.23;3.90;;;;;;;10.11;91.14;92191.16;5011261;28;20041;-84
2022/04/23 03:34:33;;;;;;;9.45;3.38;;;;;;;9.96;91.81;92175.50;5011008;28;20505;-84
2022/04/23 03:37:00;;;;;;;6.35;3.00;;;;;;;10.22;92.14;92222.09;5011101;28;20042;-83
2022/04/23 03:39:28;;;;;;;9.65;4.25;;;;;;;10.26;91.58;92236.81;5010895;28;20477;-83
2022/04/23 03:41:55;;;;;;;9.13;3.95;;;;;;;10.28;91.56;92250.19;5010923;28;20046;-83
2022/04/23 03:44:22;;;;;;;10.88;4.53;;;;;;;10.27;91.58;92248.63;5010944;28;20048;-83
2022/04/23 03:46:49;;;;;;;8.48;4.43;;;;;;;10.33;90.90;92254.63;5010904;28;20076;-82
2022/04/23 03:49:16;;;;;;;10.73;4.80;;;;;;;10.00;91.07;92202.25;5010741;28;20042;-85
2022/04/23 03:51:42;;;;;;;9.20;5.03;;;;;;;10.39;90.15;92261.41;5010989;28;20046;-85
2022/04/23 03:54:10;;;;;;;7.57;3.55;;;;;;;10.37;90.37;92260.84;5010520;28;20060;-85
2022/04/23 03:56:38;;;;;;;10.98;4.00;;;;;;;10.40;90.69;92260.41;5009613;28;20057;-84
2022/04/23 03:59:07;;;;;;;10.35;3.47;;;;;;;10.18;90.69;92232.03;5010369;28;20046;-84
2022/04/23 04:01:34;;;;;;;11.23;3.97;;;;;;;10.41;91.20;92268.84;5010488;28;20050;-84
2022/04/23 04:04:01;;;;;;;7.90;3.92;;;;;;;10.43;90.96;92272.00;5010512;28;20042;-84
2022/04/23 04:06:28;;;;;;;8.30;4.10;;;;;;;10.41;89.71;92258.59;5010578;28;20041;-84
2022/04/23 04:08:55;;;;;;;17.60;5.82;;;;;;;10.48;89.96;92266.97;5010472;28;20046;-84
2022/04/23 04:11:23;;;;;;;13.32;6.47;;;;;;;10.31;89.67;92238.66;5010363;28;20568;-83
2022/04/23 04:13:53;;;;;;;16.80;7.80;;;;;;;10.42;89.70;92249.91;5010586;28;20049;-84
2022/04/23 04:16:23;;;;;;;18.15;7.30;;;;;;;10.51;90.36;92270.88;5010541;28;20046;-84
2022/04/23 04:18:50;;;;;;;23.13;11.43;;;;;;;10.53;90.04;92273.97;5010528;28;20046;-84
2022/04/23 04:21:16;;;;;;;14.63;7.30;;;;;;;10.37;90.13;92255.72;5010035;28;20396;-84
2022/04/23 04:23:43;;;;;;;11.10;5.18;;;;;;;10.49;90.75;92270.28;5007729;28;20048;-84
2022/04/23 04:26:10;;;;;;;11.05;4.75;;;;;;;10.42;90.84;92266.06;5009286;28;20045;-82
2022/04/23 04:28:37;;;;;;;7.20;3.35;;;;;;;10.56;90.86;92279.41;5009890;28;20254;-82
2022/04/23 04:33:49;;;;;;;10.18;5.15;;;;;;;10.51;90.12;92265.72;4991009;28;20060;-83
2022/04/23 04:36:16;;;;;;;11.80;5.05;;;;;;;10.71;89.88;92295.28;4990748;28;20038;-82
2022/04/23 04:38:43;;;;;;;10.70;4.78;;;;;;;10.74;89.86;92294.84;4990690;28;20332;-81
2022/04/23 04:41:10;;;;;;;9.55;4.97;;;;;;;10.79;89.52;92293.13;5001021;28;20076;-83
2022/04/23 04:43:40;;;;;;;12.05;5.70;;;;;;;10.86;89.10;92290.41;5009890;28;20038;-83
2022/04/23 04:46:09;;;;;;;13.80;5.38;;;;;;;10.96;88.45;92292.34;5009661;28;20486;-83
2022/04/23 04:48:35;;;;;;;8.15;4.63;;;;;;;11.03;89.24;92297.34;5010103;28;20037;-83
2022/04/23 04:51:02;;;;;;;8.23;4.10;;;;;;;11.12;88.85;92297.72;5010313;28;20497;-83
2022/04/23 04:53:29;;;;;;;7.85;3.35;;;;;;;11.20;88.66;92302.47;5009837;28;20485;-83
2022/04/23 04:55:57;;;;;;;6.30;3.28;;;;;;;11.21;88.32;92288.59;5010036;28;20042;-83
2022/04/23 04:58:24;;;;;;;7.63;3.53;;;;;;;11.16;87.88;92273.09;5009906;28;20500;-82
2022/04/23 05:00:50;;;;;;;7.53;2.88;;;;;;;11.34;86.94;92298.53;5010157;28;20104;-83
2022/04/23 05:03:19;;;;;;;10.27;3.90;;;;;;;11.52;86.00;92311.38;5009984;28;20053;-82
2022/04/23 05:05:46;;;;;;;9.45;3.28;;;;;;;11.62;85.39;92319.22;5009520;28;20478;-83
2022/04/23 05:08:12;;;;;;;9.40;3.50;;;;;;;11.56;85.14;92307.28;5009579;28;20052;-82
2022/04/23 05:10:39;;;;;;;9.52;4.20;;;;;;;11.58;84.66;92300.13;5009722;28;20048;-82
2022/04/23 05:13:06;;;;;;;8.63;3.15;;;;;;;11.80;84.76;92327.66;5009539;28;20378;-82
2022/04/23 05:15:33;;;;;;;8.35;3.70;;;;;;;11.77;83.39;92321.22;5009517;28;20053;-82
2022/04/23 05:18:00;;;;;;;8.65;3.38;;;;;;;11.85;83.59;92313.06;5009510;28;20044;-82
2022/04/23 05:20:28;;;;;;;8.45;3.97;;;;;;;11.89;83.27;92303.84;5009251;28;20108;-82
2022/04/23 05:22:55;;;;;;;9.73;3.97;;;;;;;12.11;83.12;92330.63;5009745;28;20116;-82
2022/04/23 05:25:22;;;;;;;8.30;4.38;;;;;;;12.20;83.28;92334.34;5010143;28;20053;-82
2022/04/23 05:27:49;;;;;;;6.50;3.80;;;;;;;12.32;82.81;92339.38;5009807;28;20061;-82
2022/04/23 05:30:16;;;;;;;14.20;5.50;;;;;;;12.43;82.20;92337.66;5009748;28;20074;-82
2022/04/23 05:32:43;;;;;;;10.25;5.30;;;;;;;12.55;82.13;92338.28;5009175;28;20508;-82
2022/04/23 05:35:09;;;;;;;17.27;7.05;;;;;;;12.72;80.87;92337.41;5009511;28;20061;-82
2022/04/23 05:37:38;;;;;;;16.77;8.85;;;;;;;12.92;80.07;92344.53;5009227;28;20053;-82
2022/04/23 05:40:06;;;;;;;14.50;8.85;;;;;;;13.05;80.46;92327.13;5009107;28;20050;-82
2022/04/23 05:42:33;;;;;;;13.52;7.53;;;;;;;13.17;80.23;92301.94;5009533;28;20038;-82
2022/04/23 05:45:00;;;;;;;12.02;5.10;;;;;;;13.57;77.61;92335.97;5009197;28;20042;-83
2022/04/23 05:47:27;;;;;;;8.95;4.32;;;;;;;13.85;76.52;92334.06;5009199;28;20108;-83
2022/04/23 05:49:53;;;;;;;9.95;3.40;;;;;;;14.12;75.13;92329.81;5009192;28;20480;-82
2022/04/23 05:52:20;;;;;;;9.40;4.70;;;;;;;14.30;75.32;92321.59;5009556;28;20042;-82
2022/04/23 05:54:49;;;;;;;13.30;4.50;;;;;;;14.70;73.03;92332.28;5008760;28;20400;-82
2022/04/23 05:57:15;;;;;;;9.60;4.35;;;;;;;14.88;71.71;92319.13;5009425;28;20477;-83
2022/04/23 05:59:42;;;;;;;13.00;4.75;;;;;;;15.25;70.69;92338.00;5009652;28;20052;-84
2022/04/23 06:02:13;;;;;;;8.95;4.38;;;;;;;14.99;69.73;92274.13;5009697;28;20049;-84
2022/04/23 06:04:40;;;;;;;10.18;4.30;;;;;;;15.74;67.89;92323.69;5009491;28;20494;-84
2022/04/23 06:07:06;;;;;;;14.00;4.43;;;;;;;16.09;67.17;92337.59;5009070;28;20137;-84
2022/04/23 06:09:36;;;;;;;11.57;2.90;;;;;;;16.02;65.53;92272.34;5008882;28;20092;-84
2022/04/23 06:12:06;;;;;;;7.38;3.10;;;;;;;16.60;63.84;92322.03;5008947;28;20049;-84
2022/04/23 06:14:32;;;;;;;6.63;3.10;;;;;;;16.85;62.34;92341.84;5009042;28;20050;-84
2022/04/23 06:16:59;;;;;;;10.55;3.10;;;;;;;17.03;61.94;92337.09;5009115;28;20065;-84
2022/04/23 06:19:26;;;;;;;6.38;2.42;;;;;;;17.19;62.15;92338.53;5009264;28;20401;-84
2022/04/23 06:21:53;;;;;;;7.97;2.50;;;;;;;16.78;61.59;92331.78;5012454;28;20512;-85
2022/04/23 06:24:20;;;;;;;5.65;2.63;;;;;;;16.31;59.88;92315.72;5012456;28;20478;-85
2022/04/23 06:26:48;;;;;;;5.20;2.78;;;;;;;16.84;62.00;92337.72;5012191;28;20141;-85
2022/04/23 06:29:16;;;;;;;6.82;2.78;;;;;;;17.28;60.31;92343.91;5012582;28;20133;-83
2022/04/23 06:31:43;;;;;;;6.93;2.50;;;;;;;17.31;59.93;92345.94;5012197;28;20060;-84
2022/04/23 06:34:10;;;;;;;6.65;2.72;;;;;;;17.59;57.80;92342.88;5012510;28;20046;-83
2022/04/23 06:36:40;;;;;;;4.88;2.53;;;;;;;17.62;59.33;92337.91;5012645;28;20034;-84
2022/04/23 06:39:07;;;;;;;7.40;2.50;;;;;;;17.21;57.09;92335.66;5012235;28;20128;-85
2022/04/23 06:41:34;;;;;;;7.95;2.80;;;;;;;16.14;58.80;92283.16;5012110;28;20068;-85
2022/04/23 06:44:02;;;;;;;7.18;2.00;;;;;;;17.19;58.99;92337.75;5012393;28;20448;-85
2022/04/23 06:46:33;;;;;;;7.15;2.65;;;;;;;17.45;55.67;92350.53;5011724;28;20046;-84
2022/04/23 06:49:05;;;;;;;6.75;2.63;;;;;;;17.40;56.36;92337.59;5011982;28;20053;-84
2022/04/23 06:51:31;;;;;;;8.55;2.00;;;;;;;17.78;59.62;92314.38;5011886;28;20050;-84
2022/04/23 06:53:58;;;;;;;5.65;2.20;;;;;;;18.09;57.32;92295.84;5011749;28;20045;-83
2022/04/23 06:56:26;;;;;;;6.53;2.08;;;;;;;18.76;55.99;92324.63;5014353;28;20042;-83
2022/04/23 06:58:53;;;;;;;6.82;2.08;;;;;;;18.70;54.57;92326.53;5014015;28;20081;-82
2022/04/23 07:01:20;;;;;;;8.90;2.45;;;;;;;18.35;51.43;92320.75;5013996;28;20481;-84
2022/04/23 07:03:48;;;;;;;8.13;2.03;;;;;;;18.66;53.29;92341.16;5013960;28;20056;-85
2022/04/23 07:06:16;;;;;;;5.85;2.47;;;;;;;18.83;54.88;92346.63;5014140;28;20088;-85
2022/04/23 07:08:44;;;;;;;9.15;2.95;;;;;;;18.92;53.12;92349.38;5013856;28;20104;-84
2022/04/23 07:11:11;;;;;;;8.15;3.13;;;;;;;19.09;53.05;92354.13;5013602;28;20046;-84
2022/04/23 07:13:38;;;;;;;7.68;2.05;;;;;;;19.34;54.21;92346.94;5014105;28;20049;-84
2022/04/23 07:16:05;;;;;;;7.82;2.30;;;;;;;19.44;52.47;92342.63;5013662;28;20046;-84
2022/04/23 07:18:33;;;;;;;8.48;2.67;;;;;;;19.39;52.53;92329.69;5013704;28;20512;-83
2022/04/23 07:21:01;;;;;;;12.68;2.65;;;;;;;19.69;51.52;92332.84;5014515;28;20062;-84
2022/04/23 07:26:12;;;;;;;7.07;2.00;;;;;;;20.10;50.81;92365.22;5010284;28;20390;-84
2022/04/23 07:28:39;;;;;;;5.93;2.30;;;;;;;20.07;50.66;92371.00;5014345;28;20042;-84
2022/04/23 07:31:06;;;;;;;6.13;2.92;;;;;;;20.02;50.78;92383.09;5014065;28;20056;-83
2022/04/23 07:39:03;;;;;;;5.18;2.13;;;;;;;19.94;50.38;92380.34;5014045;28;20076;-84
2022/04/23 07:41:30;;;;;;;6.90;2.13;;;;;;;19.83;51.06;92358.91;5013828;28;20050;-85
2022/04/23 07:43:58;;;;;;;6.47;2.15;;;;;;;20.25;52.07;92383.19;5013747;28;20058;-84
2022/04/23 07:46:25;;;;;;;6.45;2.35;;;;;;;20.25;47.23;92377.19;5013582;28;20145;-85
2022/04/23 07:48:52;;;;;;;7.40;2.20;;;;;;;19.67;48.55;92382.63;5013515;28;20069;-86
2022/04/23 07:51:20;;;;;;;6.47;2.65;;;;;;;19.85;52.55;92385.44;5013492;28;20041;-85
2022/04/23 07:53:47;;;;;;;9.48;2.30;;;;;;;19.77;51.75;92379.84;5013279;28;20049;-86
2022/04/23 07:56:14;;;;;;;10.02;2.60;;;;;;;18.63;52.24;92378.91;5011743;28;20068;-86
2022/04/23 07:58:41;;;;;;;7.13;2.40;;;;;;;19.13;54.34;92375.13;5011181;28;20046;-86
2022/04/23 08:01:08;;;;;;;6.07;2.10;;;;;;;19.04;51.37;92376.81;5015836;28;20050;-85
2022/04/23 08:03:35;;;;;;;10.02;5.05;;;;;;;18.54;52.05;92341.56;5013934;28;20049;-87
2022/04/23 08:06:02;;;;;;;8.73;3.35;;;;;;;18.06;54.23;92360.56;5010362;28;20497;-88
2022/04/23 08:08:30;;;;;;;9.85;2.42;;;;;;;18.68;53.21;92378.84;5010583;28;20383;-87
2022/04/23 08:10:57;;;;;;;7.63;2.03;;;;;;;18.58;53.91;92324.34;4995118;28;20061;-87
2022/04/23 08:13:25;;;;;;;8.98;3.42;;;;;;;19.31;52.62;92378.00;4991528;28;20389;-87
2022/04/23 08:15:54;;;;;;;6.85;3.50;;;;;;;19.06;50.63;92378.09;4991350;28;20478;-87
2022/04/23 08:18:21;;;;;;;8.07;2.17;;;;;;;18.29;53.91;92325.25;4999077;28;20042;-87
2022/04/23 08:20:49;;;;;;;5.75;1.83;;;;;;;18.23;52.84;92315.97;5010190;28;20084;-88
2022/04/23 08:23:17;;;;;;;17.25;6.85;;;;;;;17.72;52.24;92305.06;5010276;28;20049;-87
2022/04/23 08:25:46;;;;;;;8.90;2.20;;;;;;;18.09;53.06;92363.41;5010631;28;20460;-87
2022/04/23 08:30:57;;;;;;;8.85;2.58;;;;;;;16.90;56.46;92302.91;5007112;28;20054;-86
2022/04/23 08:33:57;;;;;;;7.88;2.58;;;;;;;16.82;58.43;92366.50;5009720;28;20045;-89
2022/04/23 08:36:15;;;;;;;9.57;3.55;;;;;;;16.55;61.18;92365.13;5008207;28;20050;-87
2022/04/23 08:38:43;;;;;;;11.50;3.38;;;;;;;16.07;59.82;92292.25;5009395;28;20085;-89
2022/04/23 08:41:17;;;;;;;11.13;2.85;;;;;;;16.17;61.74;92290.38;5009005;28;20034;-87
2022/04/23 08:43:51;;;;;;;5.53;1.90;;;;;;;16.71;63.05;92375.38;5006844;28;20560;-88
2022/04/23 08:46:21;;;;;;;8.50;2.33;;;;;;;16.79;66.48;92374.84;5008799;28;20057;-86
2022/04/23 08:48:58;;;;;;;6.75;1.80;;;;;;;15.20;74.01;92331.03;5009897;28;20044;-87
2022/04/23 08:52:01;;;;;;;7.72;2.58;;;;;;;15.66;76.47;92400.09;5009861;28;20409;-89
2022/04/23 08:54:46;;;;;;;10.57;6.88;;;;;;;15.05;81.77;92411.97;5009135;28;20123;-88
2022/04/23 08:57:18;;;;;;;5.10;2.17;;;;;;;15.22;82.16;92411.72;5007031;28;20064;-87
2022/04/23 08:59:51;;;;;;;4.63;1.58;;;;;;;15.42;80.25;92412.78;5008956;28;21470;-87
2022/04/23 09:02:19;;;;;;;2.95;1.45;;;;;;;14.92;78.88;92339.03;5009856;28;20096;-87
2022/04/23 09:04:46;;;;;;;5.95;2.75;;;;;;;14.82;87.16;92414.78;5010495;28;20050;-85
2022/04/23 09:07:20;;;;;;;22.23;9.65;;;;;;;14.37;90.39;92364.47;5006286;28;20145;-86
2022/04/23 09:09:52;;;;;;;6.50;2.25;;;;;;;14.12;92.21;92346.06;5009653;28;20161;-86
2022/04/23 09:12:24;;;;;;;6.13;2.65;;;;;;;14.44;93.78;92429.59;5009806;28;20052;-86
2022/04/23 09:14:52;;;;;;;4.30;2.50;;;;;;;14.33;96.27;92413.31;5009751;28;20052;-87
2022/04/23 09:25:40;;;;;;;5.72;2.78;;;;;;;14.26;91.04;92413.53;5009327;28;20068;-87
2022/04/23 09:28:20;;;;;;;8.05;3.80;;;;;;;14.24;94.54;92405.25;5009223;28;20481;-86
2022/04/23 09:30:49;;;;;;;19.13;9.82;;;;;;;14.33;93.45;92391.84;5009381;28;20132;-86
2022/04/23 09:33:16;;;;;;;9.35;4.45;;;;;;;14.67;88.28;92388.84;5009594;28;20049;-87
2022/04/23 09:35:54;;;;;;;15.02;7.32;;;;;;;14.78;86.91;92354.28;5009117;28;20049;-86
2022/04/23 09:38:21;;;;;;;6.22;2.88;;;;;;;15.03;85.19;92339.03;5009243;28;20045;-87
2022/04/23 09:40:52;;;;;;;7.03;3.78;;;;;;;15.33;84.50;92320.13;5009129;28;20038;-87
2022/04/23 09:43:28;;;;;;;3.88;1.80;;;;;;;16.30;82.36;92392.69;5008954;28;20440;-88
2022/04/23 09:46:04;;;;;;;4.72;1.42;;;;;;;16.26;81.19;92346.84;5009324;28;20053;-88
2022/04/23 09:48:33;;;;;;;;;;;;;;;16.97;77.18;92401.19;5009678;28;20128;-88
2022/04/23 09:51:06;;;;;;;4.25;1.77;;;;;;;16.35;76.57;92321.94;5008625;28;20033;-88
2022/04/23 09:53:47;;;;;;;9.38;2.08;;;;;;;16.10;77.58;92346.16;5009085;28;20116;-89
2022/04/23 09:56:24;;;;;;;3.42;1.40;;;;;;;16.62;76.86;92348.50;5011491;28;20054;-89
2022/04/23 09:59:13;;;;;;;4.85;1.50;;;;;;;16.94;74.71;92334.28;5012239;28;20042;-89
2022/04/23 10:01:50;;;;;;;6.38;1.67;;;;;;;16.36;73.94;92356.38;5012559;28;20401;-88
2022/04/23 10:04:29;;;;;;;4.28;1.65;;;;;;;16.92;74.70;92339.75;5012329;28;20053;-89
2022/04/23 10:06:57;;;;;;;10.48;5.22;;;;;;;17.28;73.63;92380.25;5012405;28;20046;-89
2022/04/23 10:09:31;;;;;;;5.57;2.55;;;;;;;16.99;66.79;92274.56;5012732;28;20497;-88
2022/04/23 10:12:09;;;;;;;7.10;2.08;;;;;;;18.40;69.91;92381.28;5013438;28;20081;-88
2022/04/23 10:14:49;;;;;;;3.80;1.48;;;;;;;18.39;67.17;92327.72;5012276;28;20501;-89
2022/04/23 10:17:20;;;;;;;12.80;1.88;;;;;;;19.22;63.49;92357.81;5011042;28;20136;-90
2022/04/23 10:19:49;;;;;;;6.00;4.07;;;;;;;19.55;60.02;92353.66;5010731;28;20045;-89
2022/04/23 10:22:45;;;;;;;13.20;3.03;;;;;;;19.07;58.94;92376.28;5010944;28;20042;-92
2022/04/23 10:25:24;;;;;;;12.05;2.40;;;;;;;18.33;58.77;92357.41;5011929;28;20367;-90
2022/04/23 10:28:04;;;;;;;12.35;2.85;;;;;;;18.60;58.77;92318.88;5012852;28;20446;-89
2022/04/23 10:30:39;;;;;;;5.95;2.72;;;;;;;18.48;59.80;92319.28;5012529;28;20131;-90
2022/04/23 10:33:26;;;;;;;6.95;2.00;;;;;;;18.64;58.98;92317.25;5012169;28;20138;-90
2022/04/23 10:36:08;;;;;;;5.40;2.47;;;;;;;19.43;57.53;92364.50;5012596;28;20137;-89
2022/04/23 10:38:42;;;;;;;9.27;1.67;;;;;;;19.11;58.96;92316.63;5012970;28;20050;-89
2022/04/23 10:41:11;;;;;;;7.53;3.22;;;;;;;19.82;57.12;92386.03;5015546;28;20056;-90
2022/04/23 10:43:47;;;;;;;9.52;2.38;;;;;;;19.36;55.43;92381.28;5014398;28;20100;-89
2022/04/23 10:46:50;;;;;;;7.13;2.30;;;;;;;18.80;55.35;92320.41;5012360;28;20112;-89
2022/04/23 10:49:19;;;;;;;8.73;1.88;;;;;;;18.76;54.41;92380.06;5012251;28;20141;-90
2022/04/23 10:51:52;;;;;;;18.83;10.00;;;;;;;18.62;55.33;92364.38;5011710;28;20042;-90
2022/04/23 10:54:21;;;;;;;17.45;5.57;;;;;;;18.79;56.29;92370.91;5012130;28;20053;-90
2022/04/23 10:56:53;;;;;;;12.27;3.42;;;;;;;19.22;59.54;92349.22;5011801;28;20089;-88
2022/04/23 10:59:38;;;;;;;7.65;1.85;;;;;;;18.95;54.69;92374.84;5011938;28;20375;-89
2022/04/23 11:02:13;;;;;;;5.43;2.20;;;;;;;19.14;55.73;92370.69;5011968;28;20143;-89
2022/04/23 11:12:14;;;;;;;12.75;2.05;;;;;;;19.09;57.06;92322.09;5011605;28;20053;-89
2022/04/23 11:13:26;;;;;;;8.10;2.63;;;;;;;18.22;57.62;92278.81;5011304;28;20089;-88
2022/04/23 11:16:17;;;;;;;6.22;1.85;;;;;;;18.83;55.75;92328.44;5011514;28;20046;-89
2022/04/23 11:18:47;;;;;;;6.68;1.58;;;;;;;19.02;53.61;92386.72;4996818;28;20057;-89
2022/04/23 11:21:21;;;;;;;12.27;5.82;;;;;;;18.55;53.48;92359.50;5011859;28;20405;-89
2022/04/23 11:23:48;;;;;;;4.70;1.88;;;;;;;18.83;53.75;92382.28;5011307;28;20485;-88
2022/04/23 11:26:17;;;;;;;11.18;2.65;;;;;;;18.65;55.05;92374.19;5011500;28;20050;-88
2022/04/23 11:28:46;;;;;;;11.40;4.60;;;;;;;18.72;55.46;92389.47;5011646;28;20061;-89
2022/04/23 11:31:15;;;;;;;6.30;2.53;;;;;;;18.88;56.24;92376.25;5011519;28;20046;-89
2022/04/23 11:33:54;;;;;;;13.27;2.45;;;;;;;18.73;55.45;92312.97;5011513;28;20046;-89
2022/04/23 11:36:26;;;;;;;9.18;3.58;;;;;;;19.56;54.21;92392.44;5011446;28;20038;-89
2022/04/23 11:38:53;;;;;;;5.38;1.92;;;;;;;19.22;53.37;92299.78;5011806;28;20050;-89
2022/04/23 11:41:33;;;;;;;9.85;2.45;;;;;;;19.56;53.69;92313.50;5011309;28;20137;-88
2022/04/23 11:44:13;;;;;;;6.43;2.05;;;;;;;20.13;51.93;92373.22;5010994;28;20445;-90
2022/04/23 11:46:48;;;;;;;7.55;2.22;;;;;;;20.48;52.70;92383.28;5011288;28;20054;-89
2022/04/23 11:49:29;;;;;;;5.10;1.90;;;;;;;20.23;49.73;92307.06;5011042;28;20072;-90
2022/04/23 11:52:33;;;;;;;7.68;2.60;;;;;;;21.05;49.72;92373.50;5010797;28;20057;-90
2022/04/23 11:55:01;;;;;;;5.47;2.08;;;;;;;20.88;51.12;92306.28;5006866;28;20473;-91
2022/04/23 11:57:28;;;;;;;6.57;1.30;;;;;;;21.06;49.53;92291.50;5010843;28;20153;-90
2022/04/23 12:00:01;;;;;;;6.95;1.80;;;;;;;21.31;46.96;92311.03;5010630;28;20092;-91
2022/04/23 12:02:36;;;;;;;7.47;1.65;;;;;;;20.89;46.40;92239.94;5010175;28;20054;-90
2022/04/23 12:05:05;;;;;;;5.95;1.20;;;;;;;21.74;47.42;92358.59;5009287;28;20079;-90
2022/04/23 12:07:34;;;;;;;7.90;1.50;;;;;;;21.58;44.81;92340.66;5010488;28;20046;-90
2022/04/23 12:10:03;;;;;;;6.93;1.85;;;;;;;20.52;47.61;92349.53;5010329;28;20608;-90
2022/04/23 12:12:31;;;;;;;9.82;2.55;;;;;;;20.27;47.82;92336.72;5010981;28;20058;-90